sensor_id;sensor_type;location;lat;lon;timestamp;P1;durP1;ratioP1;P2;durP2;ratioP2
64361;SDS011;50685;53.346;-6.296;2023-04-03T00:01:32;3.95;;;1.40;;
64361;SDS011;50685;53.346;-6.296;2023-04-03T00:03:58;1.38;;;0.90;;
64361;SDS011;50685;53.346;-6.296;2023-04-03T00:06:25;2.85;;;1.20;;
64361;SDS011;50685;53.346;-6.296;2023-04-03T00:08:51;0.88;;;0.77;;
64361;SDS011;50685;53.346;-6.296;2023-04-03T00:11:17;2.70;;;0.93;;
64361;SDS011;50685;53.346;-6.296;2023-04-03T00:13:43;2.53;;;0.90;;
64361;SDS011;50685;53.346;-6.296;2023-04-03T00:16:09;5.20;;;1.17;;
64361;SDS011;50685;53.346;-6.296;2023-04-03T00:18:36;4.25;;;1.20;;
64361;SDS011;50685;53.346;-6.296;2023-04-03T00:21:02;1.83;;;0.98;;
64361;SDS011;50685;53.346;-6.296;2023-04-03T00:23:28;4.13;;;1.55;;
64361;SDS011;50685;53.346;-6.296;2023-04-03T00:25:53;1.75;;;1.10;;
64361;SDS011;50685;53.346;-6.296;2023-04-03T00:28:22;3.63;;;1.25;;
64361;SDS011;50685;53.346;-6.296;2023-04-03T00:30:51;4.18;;;1.25;;
64361;SDS011;50685;53.346;-6.296;2023-04-03T00:33:16;5.25;;;1.20;;
64361;SDS011;50685;53.346;-6.296;2023-04-03T00:35:51;6.90;;;1.48;;
64361;SDS011;50685;53.346;-6.296;2023-04-03T00:38:17;1.85;;;1.30;;
64361;SDS011;50685;53.346;-6.296;2023-04-03T00:40:44;4.75;;;1.40;;
64361;SDS011;50685;53.346;-6.296;2023-04-03T00:43:15;2.25;;;1.00;;
64361;SDS011;50685;53.346;-6.296;2023-04-03T00:45:46;4.80;;;1.40;;
64361;SDS011;50685;53.346;-6.296;2023-04-03T00:48:28;3.28;;;1.60;;
64361;SDS011;50685;53.346;-6.296;2023-04-03T00:50:56;1.58;;;1.20;;
64361;SDS011;50685;53.346;-6.296;2023-04-03T00:53:26;4.30;;;1.00;;
64361;SDS011;50685;53.346;-6.296;2023-04-03T00:56:02;4.65;;;1.05;;
64361;SDS011;50685;53.346;-6.296;2023-04-03T00:58:43;7.45;;;1.10;;
64361;SDS011;50685;53.346;-6.296;2023-04-03T01:01:20;8.48;;;1.30;;
64361;SDS011;50685;53.346;-6.296;2023-04-03T01:03:49;5.22;;;1.42;;
64361;SDS011;50685;53.346;-6.296;2023-04-03T01:06:15;3.13;;;1.35;;
64361;SDS011;50685;53.346;-6.296;2023-04-03T01:08:44;2.33;;;1.00;;
64361;SDS011;50685;53.346;-6.296;2023-04-03T01:11:13;3.00;;;1.10;;
64361;SDS011;50685;53.346;-6.296;2023-04-03T01:13:38;2.55;;;1.10;;
64361;SDS011;50685;53.346;-6.296;2023-04-03T01:16:05;1.95;;;1.10;;
64361;SDS011;50685;53.346;-6.296;2023-04-03T01:18:31;2.13;;;1.02;;
64361;SDS011;50685;53.346;-6.296;2023-04-03T01:26:24;2.72;;;1.05;;
64361;SDS011;50685;53.346;-6.296;2023-04-03T01:28:50;5.72;;;1.23;;
64361;SDS011;50685;53.346;-6.296;2023-04-03T01:31:23;2.70;;;1.05;;
64361;SDS011;50685;53.346;-6.296;2023-04-03T01:33:53;4.22;;;1.00;;
64361;SDS011;50685;53.346;-6.296;2023-04-03T01:36:23;4.78;;;1.42;;
64361;SDS011;50685;53.346;-6.296;2023-04-03T01:38:55;6.32;;;2.85;;
64361;SDS011;50685;53.346;-6.296;2023-04-03T01:41:22;3.38;;;1.58;;
64361;SDS011;50685;53.346;-6.296;2023-04-03T01:43:50;2.75;;;1.48;;
64361;SDS011;50685;53.346;-6.296;2023-04-03T01:46:39;3.70;;;2.03;;
64361;SDS011;50685;53.346;-6.296;2023-04-03T01:49:07;7.78;;;1.60;;
64361;SDS011;50685;53.346;-6.296;2023-04-03T01:51:33;5.22;;;1.40;;
64361;SDS011;50685;53.346;-6.296;2023-04-03T01:54:01;2.90;;;1.48;;
64361;SDS011;50685;53.346;-6.296;2023-04-03T01:56:26;1.75;;;1.02;;
64361;SDS011;50685;53.346;-6.296;2023-04-03T01:58:52;1.83;;;1.02;;
64361;SDS011;50685;53.346;-6.296;2023-04-03T02:01:17;4.38;;;1.17;;
64361;SDS011;50685;53.346;-6.296;2023-04-03T02:03:43;4.20;;;1.60;;
64361;SDS011;50685;53.346;-6.296;2023-04-03T02:06:14;3.33;;;1.38;;
64361;SDS011;50685;53.346;-6.296;2023-04-03T02:08:42;2.15;;;1.13;;
64361;SDS011;50685;53.346;-6.296;2023-04-03T02:11:11;1.40;;;1.10;;
64361;SDS011;50685;53.346;-6.296;2023-04-03T02:13:48;2.92;;;1.30;;
64361;SDS011;50685;53.346;-6.296;2023-04-03T02:16:45;2.28;;;1.23;;
64361;SDS011;50685;53.346;-6.296;2023-04-03T02:19:42;2.35;;;1.00;;
64361;SDS011;50685;53.346;-6.296;2023-04-03T02:22:14;1.33;;;1.23;;
64361;SDS011;50685;53.346;-6.296;2023-04-03T02:30:28;4.03;;;1.30;;
64361;SDS011;50685;53.346;-6.296;2023-04-03T02:32:54;1.40;;;1.30;;
64361;SDS011;50685;53.346;-6.296;2023-04-03T02:35:19;3.90;;;1.65;;
64361;SDS011;50685;53.346;-6.296;2023-04-03T02:37:45;5.40;;;1.50;;
64361;SDS011;50685;53.346;-6.296;2023-04-03T02:40:28;5.40;;;1.30;;
64361;SDS011;50685;53.346;-6.296;2023-04-03T02:43:00;5.93;;;1.63;;
64361;SDS011;50685;53.346;-6.296;2023-04-03T02:45:38;3.65;;;1.80;;
64361;SDS011;50685;53.346;-6.296;2023-04-03T02:48:10;2.83;;;1.60;;
64361;SDS011;50685;53.346;-6.296;2023-04-03T02:50:37;5.65;;;2.00;;
64361;SDS011;50685;53.346;-6.296;2023-04-03T02:53:02;2.55;;;1.75;;
64361;SDS011;50685;53.346;-6.296;2023-04-03T02:58:14;6.43;;;1.75;;
64361;SDS011;50685;53.346;-6.296;2023-04-03T03:01:11;5.45;;;2.05;;
64361;SDS011;50685;53.346;-6.296;2023-04-03T03:08:51;4.30;;;1.77;;
64361;SDS011;50685;53.346;-6.296;2023-04-03T03:14:54;7.45;;;2.00;;
64361;SDS011;50685;53.346;-6.296;2023-04-03T03:17:50;5.03;;;1.70;;
64361;SDS011;50685;53.346;-6.296;2023-04-03T03:20:28;3.42;;;1.88;;
64361;SDS011;50685;53.346;-6.296;2023-04-03T03:23:07;4.20;;;2.10;;
64361;SDS011;50685;53.346;-6.296;2023-04-03T03:28:49;7.07;;;2.38;;
64361;SDS011;50685;53.346;-6.296;2023-04-03T03:31:15;3.65;;;2.00;;
64361;SDS011;50685;53.346;-6.296;2023-04-03T03:36:57;2.78;;;2.10;;
64361;SDS011;50685;53.346;-6.296;2023-04-03T04:05:53;8.55;;;2.85;;
64361;SDS011;50685;53.346;-6.296;2023-04-03T04:13:48;6.85;;;2.95;;
64361;SDS011;50685;53.346;-6.296;2023-04-03T04:33:22;10.88;;;3.58;;
64361;SDS011;50685;53.346;-6.296;2023-04-03T04:35:48;6.30;;;2.92;;
64361;SDS011;50685;53.346;-6.296;2023-04-03T04:41:00;8.65;;;3.60;;
64361;SDS011;50685;53.346;-6.296;2023-04-03T04:46:03;8.63;;;3.42;;
64361;SDS011;50685;53.346;-6.296;2023-04-03T04:48:31;6.38;;;3.85;;
64361;SDS011;50685;53.346;-6.296;2023-04-03T04:56:42;6.55;;;4.30;;
64361;SDS011;50685;53.346;-6.296;2023-04-03T04:59:35;6.32;;;4.10;;
64361;SDS011;50685;53.346;-6.296;2023-04-03T05:04:38;8.18;;;4.00;;
64361;SDS011;50685;53.346;-6.296;2023-04-03T05:09:54;6.20;;;3.53;;
64361;SDS011;50685;53.346;-6.296;2023-04-03T05:12:21;6.68;;;3.35;;
64361;SDS011;50685;53.346;-6.296;2023-04-03T05:15:22;6.70;;;3.92;;
64361;SDS011;50685;53.346;-6.296;2023-04-03T05:17:54;8.63;;;3.63;;
64361;SDS011;50685;53.346;-6.296;2023-04-03T05:20:23;9.45;;;3.17;;
64361;SDS011;50685;53.346;-6.296;2023-04-03T05:22:57;5.05;;;3.05;;
64361;SDS011;50685;53.346;-6.296;2023-04-03T05:25:39;4.13;;;3.47;;
64361;SDS011;50685;53.346;-6.296;2023-04-03T05:28:04;6.97;;;3.70;;
64361;SDS011;50685;53.346;-6.296;2023-04-03T05:30:36;6.65;;;3.67;;
64361;SDS011;50685;53.346;-6.296;2023-04-03T05:35:51;8.05;;;3.47;;
64361;SDS011;50685;53.346;-6.296;2023-04-03T05:38:34;5.05;;;3.58;;
64361;SDS011;50685;53.346;-6.296;2023-04-03T05:41:09;6.25;;;3.90;;
64361;SDS011;50685;53.346;-6.296;2023-04-03T05:46:27;7.03;;;4.50;;
64361;SDS011;50685;53.346;-6.296;2023-04-03T05:49:15;11.73;;;5.03;;
64361;SDS011;50685;53.346;-6.296;2023-04-03T06:02:44;7.60;;;4.35;;
64361;SDS011;50685;53.346;-6.296;2023-04-03T06:05:22;9.15;;;4.47;;
64361;SDS011;50685;53.346;-6.296;2023-04-03T06:08:14;7.88;;;4.20;;
64361;SDS011;50685;53.346;-6.296;2023-04-03T06:10:39;12.30;;;5.55;;
64361;SDS011;50685;53.346;-6.296;2023-04-03T06:13:05;11.13;;;4.32;;
64361;SDS011;50685;53.346;-6.296;2023-04-03T06:15:57;9.95;;;5.07;;
64361;SDS011;50685;53.346;-6.296;2023-04-03T06:18:30;12.10;;;5.65;;
64361;SDS011;50685;53.346;-6.296;2023-04-03T06:21:01;8.07;;;5.35;;
64361;SDS011;50685;53.346;-6.296;2023-04-03T06:23:27;17.35;;;6.57;;
64361;SDS011;50685;53.346;-6.296;2023-04-03T06:25:53;12.80;;;6.80;;
64361;SDS011;50685;53.346;-6.296;2023-04-03T06:28:27;17.83;;;6.70;;
64361;SDS011;50685;53.346;-6.296;2023-04-03T06:30:58;10.93;;;5.95;;
64361;SDS011;50685;53.346;-6.296;2023-04-03T06:34:08;18.65;;;6.68;;
64361;SDS011;50685;53.346;-6.296;2023-04-03T06:36:39;13.88;;;7.47;;
64361;SDS011;50685;53.346;-6.296;2023-04-03T06:42:01;17.10;;;6.75;;
64361;SDS011;50685;53.346;-6.296;2023-04-03T06:44:37;16.08;;;6.72;;
64361;SDS011;50685;53.346;-6.296;2023-04-03T06:47:31;19.08;;;6.70;;
64361;SDS011;50685;53.346;-6.296;2023-04-03T06:50:16;11.15;;;6.10;;
64361;SDS011;50685;53.346;-6.296;2023-04-03T06:52:42;7.95;;;5.00;;
64361;SDS011;50685;53.346;-6.296;2023-04-03T06:55:08;11.75;;;6.25;;
64361;SDS011;50685;53.346;-6.296;2023-04-03T06:57:34;11.18;;;6.13;;
64361;SDS011;50685;53.346;-6.296;2023-04-03T07:00:07;13.20;;;4.85;;
64361;SDS011;50685;53.346;-6.296;2023-04-03T07:02:34;14.00;;;5.18;;
64361;SDS011;50685;53.346;-6.296;2023-04-03T07:05:00;12.18;;;5.10;;
64361;SDS011;50685;53.346;-6.296;2023-04-03T07:07:27;12.05;;;4.75;;
64361;SDS011;50685;53.346;-6.296;2023-04-03T07:09:53;10.85;;;5.30;;
64361;SDS011;50685;53.346;-6.296;2023-04-03T07:14:53;10.25;;;4.03;;
64361;SDS011;50685;53.346;-6.296;2023-04-03T07:17:22;9.70;;;4.30;;
64361;SDS011;50685;53.346;-6.296;2023-04-03T07:19:48;12.82;;;4.05;;
64361;SDS011;50685;53.346;-6.296;2023-04-03T07:22:13;17.05;;;5.40;;
64361;SDS011;50685;53.346;-6.296;2023-04-03T07:24:39;20.63;;;4.90;;
64361;SDS011;50685;53.346;-6.296;2023-04-03T07:27:04;16.83;;;4.82;;
64361;SDS011;50685;53.346;-6.296;2023-04-03T07:29:30;8.80;;;4.18;;
64361;SDS011;50685;53.346;-6.296;2023-04-03T07:31:56;8.18;;;3.85;;
64361;SDS011;50685;53.346;-6.296;2023-04-03T07:34:22;10.80;;;3.85;;
64361;SDS011;50685;53.346;-6.296;2023-04-03T07:36:48;19.98;;;4.43;;
64361;SDS011;50685;53.346;-6.296;2023-04-03T07:39:14;12.38;;;4.10;;
64361;SDS011;50685;53.346;-6.296;2023-04-03T07:41:39;10.50;;;4.57;;
64361;SDS011;50685;53.346;-6.296;2023-04-03T07:44:05;20.58;;;4.28;;
64361;SDS011;50685;53.346;-6.296;2023-04-03T07:46:31;13.27;;;4.38;;
64361;SDS011;50685;53.346;-6.296;2023-04-03T07:48:59;12.88;;;3.95;;
64361;SDS011;50685;53.346;-6.296;2023-04-03T07:51:27;12.45;;;4.25;;
64361;SDS011;50685;53.346;-6.296;2023-04-03T07:53:54;10.93;;;3.13;;
64361;SDS011;50685;53.346;-6.296;2023-04-03T07:56:43;15.05;;;4.57;;
64361;SDS011;50685;53.346;-6.296;2023-04-03T07:59:11;14.85;;;4.38;;
64361;SDS011;50685;53.346;-6.296;2023-04-03T08:01:41;13.15;;;3.30;;
64361;SDS011;50685;53.346;-6.296;2023-04-03T08:04:09;15.95;;;3.20;;
64361;SDS011;50685;53.346;-6.296;2023-04-03T08:06:35;11.63;;;4.10;;
64361;SDS011;50685;53.346;-6.296;2023-04-03T08:09:03;11.15;;;3.20;;
64361;SDS011;50685;53.346;-6.296;2023-04-03T08:11:29;10.25;;;2.58;;
64361;SDS011;50685;53.346;-6.296;2023-04-03T08:13:55;6.43;;;2.38;;
64361;SDS011;50685;53.346;-6.296;2023-04-03T08:16:24;10.98;;;2.55;;
64361;SDS011;50685;53.346;-6.296;2023-04-03T08:18:53;11.68;;;3.03;;
64361;SDS011;50685;53.346;-6.296;2023-04-03T08:21:20;9.60;;;2.58;;
64361;SDS011;50685;53.346;-6.296;2023-04-03T08:23:48;14.82;;;2.83;;
64361;SDS011;50685;53.346;-6.296;2023-04-03T08:26:16;9.27;;;3.60;;
64361;SDS011;50685;53.346;-6.296;2023-04-03T08:28:43;11.45;;;2.95;;
64361;SDS011;50685;53.346;-6.296;2023-04-03T08:31:10;13.02;;;3.13;;
64361;SDS011;50685;53.346;-6.296;2023-04-03T08:33:38;12.13;;;3.60;;
64361;SDS011;50685;53.346;-6.296;2023-04-03T08:36:05;11.77;;;4.13;;
64361;SDS011;50685;53.346;-6.296;2023-04-03T08:38:40;9.77;;;2.97;;
64361;SDS011;50685;53.346;-6.296;2023-04-03T08:41:20;9.48;;;3.38;;
64361;SDS011;50685;53.346;-6.296;2023-04-03T08:46:28;8.48;;;3.97;;
64361;SDS011;50685;53.346;-6.296;2023-04-03T08:52:08;15.43;;;3.80;;
64361;SDS011;50685;53.346;-6.296;2023-04-03T08:54:58;9.82;;;3.17;;
64361;SDS011;50685;53.346;-6.296;2023-04-03T08:57:42;8.57;;;3.75;;
64361;SDS011;50685;53.346;-6.296;2023-04-03T09:02:43;13.20;;;4.20;;
64361;SDS011;50685;53.346;-6.296;2023-04-03T09:05:53;9.32;;;3.92;;
64361;SDS011;50685;53.346;-6.296;2023-04-03T09:14:32;11.02;;;3.20;;
64361;SDS011;50685;53.346;-6.296;2023-04-03T09:22:32;7.53;;;2.33;;
64361;SDS011;50685;53.346;-6.296;2023-04-03T09:28:13;9.55;;;3.28;;
64361;SDS011;50685;53.346;-6.296;2023-04-03T09:30:39;10.98;;;3.03;;
64361;SDS011;50685;53.346;-6.296;2023-04-03T09:33:05;10.95;;;2.85;;
64361;SDS011;50685;53.346;-6.296;2023-04-03T09:35:32;9.05;;;3.35;;
64361;SDS011;50685;53.346;-6.296;2023-04-03T09:38:14;12.20;;;3.50;;
64361;SDS011;50685;53.346;-6.296;2023-04-03T09:40:46;8.23;;;3.10;;
64361;SDS011;50685;53.346;-6.296;2023-04-03T09:43:28;7.43;;;2.88;;
64361;SDS011;50685;53.346;-6.296;2023-04-03T09:49:16;7.75;;;3.47;;
64361;SDS011;50685;53.346;-6.296;2023-04-03T09:51:47;12.75;;;3.65;;
64361;SDS011;50685;53.346;-6.296;2023-04-03T09:54:30;8.50;;;3.10;;
64361;SDS011;50685;53.346;-6.296;2023-04-03T09:56:56;13.23;;;3.88;;
64361;SDS011;50685;53.346;-6.296;2023-04-03T09:59:29;11.00;;;3.20;;
64361;SDS011;50685;53.346;-6.296;2023-04-03T10:01:59;14.95;;;3.67;;
64361;SDS011;50685;53.346;-6.296;2023-04-03T10:04:41;9.68;;;3.75;;
64361;SDS011;50685;53.346;-6.296;2023-04-03T10:07:26;11.05;;;3.85;;
64361;SDS011;50685;53.346;-6.296;2023-04-03T10:10:14;13.60;;;4.28;;
64361;SDS011;50685;53.346;-6.296;2023-04-03T10:16:03;15.90;;;3.92;;
64361;SDS011;50685;53.346;-6.296;2023-04-03T10:21:33;11.13;;;3.60;;
64361;SDS011;50685;53.346;-6.296;2023-04-03T10:34:53;13.27;;;3.85;;
64361;SDS011;50685;53.346;-6.296;2023-04-03T10:37:30;15.32;;;4.15;;
64361;SDS011;50685;53.346;-6.296;2023-04-03T10:42:59;23.73;;;5.03;;
64361;SDS011;50685;53.346;-6.296;2023-04-03T10:51:31;18.30;;;3.72;;
64361;SDS011;50685;53.346;-6.296;2023-04-03T10:59:36;17.63;;;3.67;;
64361;SDS011;50685;53.346;-6.296;2023-04-03T11:05:17;14.77;;;3.30;;
64361;SDS011;50685;53.346;-6.296;2023-04-03T11:07:56;22.58;;;3.50;;
64361;SDS011;50685;53.346;-6.296;2023-04-03T11:13:40;12.15;;;3.85;;
64361;SDS011;50685;53.346;-6.296;2023-04-03T11:19:18;13.52;;;3.33;;
64361;SDS011;50685;53.346;-6.296;2023-04-03T11:21:55;20.02;;;4.88;;
64361;SDS011;50685;53.346;-6.296;2023-04-03T11:25:06;16.00;;;3.55;;
64361;SDS011;50685;53.346;-6.296;2023-04-03T11:27:57;13.63;;;3.75;;
64361;SDS011;50685;53.346;-6.296;2023-04-03T11:35:37;12.20;;;4.35;;
64361;SDS011;50685;53.346;-6.296;2023-04-03T11:38:28;15.63;;;3.63;;
64361;SDS011;50685;53.346;-6.296;2023-04-03T11:41:28;18.20;;;3.95;;
64361;SDS011;50685;53.346;-6.296;2023-04-03T11:44:00;14.07;;;3.20;;
64361;SDS011;50685;53.346;-6.296;2023-04-03T11:47:09;18.00;;;3.85;;
64361;SDS011;50685;53.346;-6.296;2023-04-03T11:49:58;15.32;;;4.78;;
64361;SDS011;50685;53.346;-6.296;2023-04-03T12:57:55;17.67;;;3.25;;
64361;SDS011;50685;53.346;-6.296;2023-04-03T13:00:41;11.88;;;2.95;;
64361;SDS011;50685;53.346;-6.296;2023-04-03T13:03:16;18.73;;;4.18;;
64361;SDS011;50685;53.346;-6.296;2023-04-03T13:06:00;22.10;;;3.88;;
64361;SDS011;50685;53.346;-6.296;2023-04-03T13:08:27;14.60;;;3.30;;
64361;SDS011;50685;53.346;-6.296;2023-04-03T13:17:02;11.60;;;3.05;;
64361;SDS011;50685;53.346;-6.296;2023-04-03T13:19:30;16.85;;;3.15;;
64361;SDS011;50685;53.346;-6.296;2023-04-03T13:22:30;13.85;;;3.67;;
64361;SDS011;50685;53.346;-6.296;2023-04-03T13:25:20;18.63;;;4.03;;
64361;SDS011;50685;53.346;-6.296;2023-04-03T13:27:50;20.00;;;4.40;;
64361;SDS011;50685;53.346;-6.296;2023-04-03T13:30:27;23.38;;;4.30;;
64361;SDS011;50685;53.346;-6.296;2023-04-03T13:33:20;26.58;;;4.60;;
64361;SDS011;50685;53.346;-6.296;2023-04-03T13:36:35;18.15;;;4.45;;
64361;SDS011;50685;53.346;-6.296;2023-04-03T13:39:27;17.13;;;3.97;;
64361;SDS011;50685;53.346;-6.296;2023-04-03T13:41:59;10.23;;;3.65;;
64361;SDS011;50685;53.346;-6.296;2023-04-03T13:47:48;15.95;;;3.90;;
64361;SDS011;50685;53.346;-6.296;2023-04-03T13:50:16;15.82;;;3.42;;
64361;SDS011;50685;53.346;-6.296;2023-04-03T13:52:52;16.67;;;4.25;;
64361;SDS011;50685;53.346;-6.296;2023-04-03T13:55:59;12.27;;;2.92;;
64361;SDS011;50685;53.346;-6.296;2023-04-03T13:58:57;10.68;;;3.55;;
64361;SDS011;50685;53.346;-6.296;2023-04-03T14:04:46;9.18;;;2.55;;
64361;SDS011;50685;53.346;-6.296;2023-04-03T14:07:49;11.88;;;2.90;;
64361;SDS011;50685;53.346;-6.296;2023-04-03T14:10:17;10.73;;;2.55;;
64361;SDS011;50685;53.346;-6.296;2023-04-03T14:19:13;9.10;;;2.03;;
64361;SDS011;50685;53.346;-6.296;2023-04-03T14:21:46;14.15;;;2.58;;
64361;SDS011;50685;53.346;-6.296;2023-04-03T14:24:16;8.15;;;3.50;;
64361;SDS011;50685;53.346;-6.296;2023-04-03T14:26:42;9.70;;;2.67;;
64361;SDS011;50685;53.346;-6.296;2023-04-03T14:32:35;11.40;;;2.15;;
64361;SDS011;50685;53.346;-6.296;2023-04-03T14:35:12;13.45;;;2.15;;
64361;SDS011;50685;53.346;-6.296;2023-04-03T14:37:54;14.57;;;2.97;;
64361;SDS011;50685;53.346;-6.296;2023-04-03T14:40:38;9.98;;;2.33;;
64361;SDS011;50685;53.346;-6.296;2023-04-03T14:43:05;8.10;;;2.42;;
64361;SDS011;50685;53.346;-6.296;2023-04-03T14:45:37;12.82;;;3.05;;
64361;SDS011;50685;53.346;-6.296;2023-04-03T14:48:06;9.10;;;2.45;;
64361;SDS011;50685;53.346;-6.296;2023-04-03T14:50:45;11.65;;;3.30;;
64361;SDS011;50685;53.346;-6.296;2023-04-03T14:53:41;10.45;;;2.50;;
64361;SDS011;50685;53.346;-6.296;2023-04-03T14:56:19;7.72;;;1.98;;
64361;SDS011;50685;53.346;-6.296;2023-04-03T14:59:09;10.38;;;2.50;;
64361;SDS011;50685;53.346;-6.296;2023-04-03T15:01:40;11.30;;;2.92;;
64361;SDS011;50685;53.346;-6.296;2023-04-03T15:04:17;7.57;;;1.60;;
64361;SDS011;50685;53.346;-6.296;2023-04-03T15:06:45;13.98;;;2.85;;
64361;SDS011;50685;53.346;-6.296;2023-04-03T15:09:22;12.43;;;3.00;;
64361;SDS011;50685;53.346;-6.296;2023-04-03T15:11:50;7.55;;;1.80;;
64361;SDS011;50685;53.346;-6.296;2023-04-03T15:14:30;12.48;;;2.85;;
64361;SDS011;50685;53.346;-6.296;2023-04-03T15:17:05;8.75;;;1.83;;
64361;SDS011;50685;53.346;-6.296;2023-04-03T15:19:41;7.55;;;2.00;;
64361;SDS011;50685;53.346;-6.296;2023-04-03T15:22:06;12.15;;;2.35;;
64361;SDS011;50685;53.346;-6.296;2023-04-03T15:27:39;11.43;;;2.50;;
64361;SDS011;50685;53.346;-6.296;2023-04-03T15:33:14;6.15;;;1.88;;
64361;SDS011;50685;53.346;-6.296;2023-04-03T15:35:40;7.93;;;1.92;;
64361;SDS011;50685;53.346;-6.296;2023-04-03T15:38:12;11.52;;;2.35;;
64361;SDS011;50685;53.346;-6.296;2023-04-03T15:40:51;14.73;;;2.58;;
64361;SDS011;50685;53.346;-6.296;2023-04-03T15:43:19;8.25;;;2.25;;
64361;SDS011;50685;53.346;-6.296;2023-04-03T15:45:45;12.60;;;2.25;;
64361;SDS011;50685;53.346;-6.296;2023-04-03T15:48:17;6.43;;;2.00;;
64361;SDS011;50685;53.346;-6.296;2023-04-03T15:50:49;7.43;;;1.67;;
64361;SDS011;50685;53.346;-6.296;2023-04-03T15:53:23;10.93;;;2.22;;
64361;SDS011;50685;53.346;-6.296;2023-04-03T15:55:51;11.18;;;1.63;;
64361;SDS011;50685;53.346;-6.296;2023-04-03T15:58:19;11.98;;;2.05;;
64361;SDS011;50685;53.346;-6.296;2023-04-03T16:00:57;5.53;;;1.63;;
64361;SDS011;50685;53.346;-6.296;2023-04-03T16:03:26;8.07;;;2.75;;
64361;SDS011;50685;53.346;-6.296;2023-04-03T16:05:51;5.00;;;1.73;;
64361;SDS011;50685;53.346;-6.296;2023-04-03T16:08:19;3.97;;;2.03;;
64361;SDS011;50685;53.346;-6.296;2023-04-03T16:11:16;4.70;;;1.80;;
64361;SDS011;50685;53.346;-6.296;2023-04-03T16:17:06;6.57;;;1.98;;
64361;SDS011;50685;53.346;-6.296;2023-04-03T16:19:41;7.15;;;1.85;;
64361;SDS011;50685;53.346;-6.296;2023-04-03T16:25:09;4.82;;;1.70;;
64361;SDS011;50685;53.346;-6.296;2023-04-03T16:27:42;7.57;;;1.70;;
64361;SDS011;50685;53.346;-6.296;2023-04-03T16:30:08;5.22;;;1.80;;
64361;SDS011;50685;53.346;-6.296;2023-04-03T16:35:24;8.38;;;2.42;;
64361;SDS011;50685;53.346;-6.296;2023-04-03T16:37:57;4.35;;;1.73;;
64361;SDS011;50685;53.346;-6.296;2023-04-03T16:40:23;7.60;;;1.80;;
64361;SDS011;50685;53.346;-6.296;2023-04-03T16:43:02;8.38;;;2.17;;
64361;SDS011;50685;53.346;-6.296;2023-04-03T16:45:28;8.35;;;1.88;;
64361;SDS011;50685;53.346;-6.296;2023-04-03T16:48:13;8.88;;;2.33;;
64361;SDS011;50685;53.346;-6.296;2023-04-03T16:53:14;5.88;;;1.77;;
64361;SDS011;50685;53.346;-6.296;2023-04-03T16:55:49;11.77;;;2.50;;
64361;SDS011;50685;53.346;-6.296;2023-04-03T16:58:22;12.85;;;2.40;;
64361;SDS011;50685;53.346;-6.296;2023-04-03T17:00:53;5.93;;;1.92;;
64361;SDS011;50685;53.346;-6.296;2023-04-03T17:03:21;11.27;;;2.75;;
64361;SDS011;50685;53.346;-6.296;2023-04-03T17:05:52;4.25;;;1.75;;
64361;SDS011;50685;53.346;-6.296;2023-04-03T17:08:18;10.23;;;2.88;;
64361;SDS011;50685;53.346;-6.296;2023-04-03T17:10:43;7.13;;;2.10;;
64361;SDS011;50685;53.346;-6.296;2023-04-03T17:13:11;7.43;;;2.10;;
64361;SDS011;50685;53.346;-6.296;2023-04-03T17:15:46;13.95;;;3.08;;
64361;SDS011;50685;53.346;-6.296;2023-04-03T17:18:12;7.10;;;2.08;;
64361;SDS011;50685;53.346;-6.296;2023-04-03T17:23:31;18.48;;;2.50;;
64361;SDS011;50685;53.346;-6.296;2023-04-03T17:26:35;4.35;;;1.75;;
64361;SDS011;50685;53.346;-6.296;2023-04-03T17:29:02;9.00;;;2.67;;
64361;SDS011;50685;53.346;-6.296;2023-04-03T17:31:33;9.65;;;2.20;;
64361;SDS011;50685;53.346;-6.296;2023-04-03T17:36:45;7.05;;;1.90;;
64361;SDS011;50685;53.346;-6.296;2023-04-03T17:39:18;5.47;;;2.10;;
64361;SDS011;50685;53.346;-6.296;2023-04-03T17:41:48;11.65;;;2.33;;
64361;SDS011;50685;53.346;-6.296;2023-04-03T17:44:14;16.10;;;2.15;;
64361;SDS011;50685;53.346;-6.296;2023-04-03T17:46:40;11.93;;;2.35;;
64361;SDS011;50685;53.346;-6.296;2023-04-03T17:49:12;7.38;;;2.20;;
64361;SDS011;50685;53.346;-6.296;2023-04-03T17:51:47;9.02;;;2.13;;
64361;SDS011;50685;53.346;-6.296;2023-04-03T17:54:18;15.75;;;2.72;;
64361;SDS011;50685;53.346;-6.296;2023-04-03T17:56:44;8.45;;;2.30;;
64361;SDS011;50685;53.346;-6.296;2023-04-03T17:59:25;12.85;;;2.58;;
64361;SDS011;50685;53.346;-6.296;2023-04-03T18:01:51;12.25;;;3.13;;
64361;SDS011;50685;53.346;-6.296;2023-04-03T18:04:50;11.20;;;2.20;;
64361;SDS011;50685;53.346;-6.296;2023-04-03T18:07:17;10.30;;;2.25;;
64361;SDS011;50685;53.346;-6.296;2023-04-03T18:09:44;8.75;;;3.00;;
64361;SDS011;50685;53.346;-6.296;2023-04-03T18:12:35;10.57;;;3.47;;
64361;SDS011;50685;53.346;-6.296;2023-04-03T18:15:03;14.30;;;2.60;;
64361;SDS011;50685;53.346;-6.296;2023-04-03T18:17:35;12.88;;;3.20;;
64361;SDS011;50685;53.346;-6.296;2023-04-03T18:20:04;6.13;;;2.40;;
64361;SDS011;50685;53.346;-6.296;2023-04-03T18:22:35;9.88;;;2.70;;
64361;SDS011;50685;53.346;-6.296;2023-04-03T18:25:05;8.40;;;2.22;;
64361;SDS011;50685;53.346;-6.296;2023-04-03T18:27:43;8.48;;;2.78;;
64361;SDS011;50685;53.346;-6.296;2023-04-03T18:30:22;12.50;;;2.63;;
64361;SDS011;50685;53.346;-6.296;2023-04-03T18:32:51;13.07;;;2.60;;
64361;SDS011;50685;53.346;-6.296;2023-04-03T18:35:40;13.50;;;3.15;;
64361;SDS011;50685;53.346;-6.296;2023-04-03T18:38:20;14.02;;;2.85;;
64361;SDS011;50685;53.346;-6.296;2023-04-03T18:40:53;10.20;;;3.00;;
64361;SDS011;50685;53.346;-6.296;2023-04-03T18:43:23;9.45;;;2.08;;
64361;SDS011;50685;53.346;-6.296;2023-04-03T18:45:51;7.53;;;2.80;;
64361;SDS011;50685;53.346;-6.296;2023-04-03T18:48:18;18.60;;;3.25;;
64361;SDS011;50685;53.346;-6.296;2023-04-03T18:50:45;26.23;;;4.97;;
64361;SDS011;50685;53.346;-6.296;2023-04-03T18:53:19;11.20;;;3.85;;
64361;SDS011;50685;53.346;-6.296;2023-04-03T18:55:54;11.55;;;4.38;;
64361;SDS011;50685;53.346;-6.296;2023-04-03T18:58:22;15.90;;;3.63;;
64361;SDS011;50685;53.346;-6.296;2023-04-03T19:00:48;13.88;;;4.60;;
64361;SDS011;50685;53.346;-6.296;2023-04-03T19:03:14;23.20;;;3.78;;
64361;SDS011;50685;53.346;-6.296;2023-04-03T19:05:43;15.27;;;3.92;;
64361;SDS011;50685;53.346;-6.296;2023-04-03T19:08:10;10.35;;;3.60;;
64361;SDS011;50685;53.346;-6.296;2023-04-03T19:10:36;13.82;;;3.90;;
64361;SDS011;50685;53.346;-6.296;2023-04-03T19:13:05;16.55;;;3.83;;
64361;SDS011;50685;53.346;-6.296;2023-04-03T19:15:31;13.18;;;3.70;;
64361;SDS011;50685;53.346;-6.296;2023-04-03T19:17:57;22.50;;;5.57;;
64361;SDS011;50685;53.346;-6.296;2023-04-03T19:20:22;19.90;;;5.40;;
64361;SDS011;50685;53.346;-6.296;2023-04-03T19:22:48;22.23;;;7.03;;
64361;SDS011;50685;53.346;-6.296;2023-04-03T19:25:14;15.55;;;6.30;;
64361;SDS011;50685;53.346;-6.296;2023-04-03T19:27:39;14.80;;;5.10;;
64361;SDS011;50685;53.346;-6.296;2023-04-03T19:30:06;16.92;;;5.32;;
64361;SDS011;50685;53.346;-6.296;2023-04-03T19:32:35;21.10;;;6.75;;
64361;SDS011;50685;53.346;-6.296;2023-04-03T19:35:01;24.77;;;7.75;;
64361;SDS011;50685;53.346;-6.296;2023-04-03T19:37:27;22.77;;;8.20;;
64361;SDS011;50685;53.346;-6.296;2023-04-03T19:39:56;20.90;;;4.72;;
64361;SDS011;50685;53.346;-6.296;2023-04-03T19:42:23;17.17;;;5.20;;
64361;SDS011;50685;53.346;-6.296;2023-04-03T19:44:52;17.80;;;6.18;;
64361;SDS011;50685;53.346;-6.296;2023-04-03T19:47:18;22.40;;;7.05;;
64361;SDS011;50685;53.346;-6.296;2023-04-03T19:59:32;23.20;;;6.28;;
64361;SDS011;50685;53.346;-6.296;2023-04-03T20:02:02;13.10;;;5.32;;
64361;SDS011;50685;53.346;-6.296;2023-04-03T20:12:17;10.45;;;3.67;;
64361;SDS011;50685;53.346;-6.296;2023-04-03T20:18:06;8.20;;;3.88;;
64361;SDS011;50685;53.346;-6.296;2023-04-03T20:20:34;10.02;;;3.50;;
64361;SDS011;50685;53.346;-6.296;2023-04-03T20:23:06;12.88;;;3.67;;